Terminal Aerodrome Forecast
Issued by NWS

Home | Current Version | Previous Version | Text Only | Print | Product List | Glossary On
Versions: 1 2 3 4 5 6 7 8 9 10 11 12 13 14 15 16 17
000
FTUS45 KTFX 242336
TAFLWT
TAF
KLWT 242336Z 2500/2524 09012KT P6SM VCSH FEW030 SCT040 OVC060
     FM250800 10010KT 3SM -SHSNRA BR SCT008 OVC020
     FM251400 05007KT 6SM -SHSN BR SCT003 OVC010
     FM251800 10006KT P6SM -SHRA OVC020=

USA.gov is the U.S. government's official web portal to all federal, state and local government web resources and services.